Time;durP1;ratioP1;P1;durP2;ratioP2;P2;SDS_P1;SDS_P2;PMS_P1;PMS_P2;Temp;Humidity;BMP_temperature;BMP_pressure;BME280_temperature;BME280_humidity;BME280_pressure;Samples;Min_cycle;Max_cycle;Signal;HPM_P1;HPM_P2
2023/01/17 00:10:21;;;;;;;0.90;0.50;;;16.00;65.00;;;;;;10407405;28;20114;-59
2023/01/17 00:15:23;;;;;;;1.52;0.50;;;16.00;65.10;;;;;;10407389;28;20072;-59
2023/01/17 00:26:01;;;;;;;1.02;0.40;;;15.90;65.20;;;;;;10418986;28;20025;-59
2023/01/17 01:34:09;;;;;;;1.90;0.53;;;15.90;64.70;;;;;;10445424;28;20120;-58
2023/01/17 01:39:10;;;;;;;1.00;0.40;;;15.90;64.70;;;;;;10446869;28;20013;-59
2023/01/17 01:44:49;;;;;;;1.30;0.22;;;15.90;64.60;;;;;;10407069;28;20032;-59
2023/01/17 01:49:50;;;;;;;1.95;0.40;;;15.90;64.50;;;;;;10417023;28;20030;-59
2023/01/17 01:55:03;;;;;;;1.38;0.40;;;15.90;64.60;;;;;;10421058;28;20460;-59
2023/01/17 02:00:15;;;;;;;0.73;0.30;;;15.90;64.60;;;;;;10426936;28;20029;-59
2023/01/17 02:05:19;;;;;;;0.73;0.30;;;15.90;64.50;;;;;;10411587;28;20025;-59
2023/01/17 02:10:20;;;;;;;0.52;0.30;;;15.90;64.60;;;;;;10421832;28;20072;-60
2023/01/17 02:15:37;;;;;;;0.70;0.20;;;15.90;64.60;;;;;;10404984;28;20434;-60
2023/01/17 02:21:01;;;;;;;0.75;0.20;;;15.90;64.60;;;;;;10431310;28;20040;-59
2023/01/17 02:26:58;;;;;;;0.65;0.20;;;15.90;64.60;;;;;;10448750;28;20463;-59
2023/01/17 02:32:15;;;;;;;0.60;0.25;;;15.90;64.60;;;;;;10413002;28;20077;-59
2023/01/17 02:37:47;;;;;;;0.50;0.20;;;15.90;64.60;;;;;;10411202;28;20025;-60
2023/01/17 02:42:59;;;;;;;0.52;0.47;;;15.90;64.60;;;;;;10434547;28;20061;-59
2023/01/17 02:48:00;;;;;;;0.63;0.20;;;15.90;64.60;;;;;;10411797;28;20107;-59
2023/01/17 02:53:44;;;;;;;0.50;0.20;;;15.90;64.70;;;;;;10429263;28;20121;-60
2023/01/17 02:59:05;;;;;;;1.67;0.20;;;15.90;64.50;;;;;;10446854;28;20052;-59
2023/01/17 03:04:16;;;;;;;0.50;0.40;;;15.90;64.50;;;;;;10425696;28;20067;-59
2023/01/17 03:09:19;;;;;;;1.20;0.30;;;15.90;64.50;;;;;;10425288;28;20045;-59
2023/01/17 03:14:19;;;;;;;1.13;0.30;;;15.90;64.50;;;;;;10437943;28;20067;-58
2023/01/17 03:19:20;;;;;;;0.45;0.20;;;15.90;64.50;;;;;;10452108;28;20017;-59
2023/01/17 03:24:20;;;;;;;0.73;0.20;;;15.90;64.50;;;;;;10450311;28;20090;-59
2023/01/17 03:29:21;;;;;;;1.73;0.28;;;15.90;64.50;;;;;;10451521;28;20060;-59
2023/01/17 03:34:22;;;;;;;1.88;0.40;;;15.90;64.50;;;;;;10425790;28;20083;-59
2023/01/17 03:39:23;;;;;;;0.32;0.13;;;15.90;64.50;;;;;;10408109;28;20471;-58
2023/01/17 03:44:23;;;;;;;0.90;0.30;;;15.90;64.50;;;;;;10435187;28;20022;-58
2023/01/17 03:49:24;;;;;;;1.05;0.43;;;15.90;64.50;;;;;;10456031;28;20422;-59
2023/01/17 03:54:25;;;;;;;0.20;0.15;;;15.90;64.40;;;;;;10447686;28;20037;-59
2023/01/17 03:59:25;;;;;;;3.75;0.50;;;15.90;64.30;;;;;;10423741;28;20019;-60
2023/01/17 04:04:26;;;;;;;0.30;0.20;;;15.90;64.30;;;;;;10434298;28;20024;-58
2023/01/17 04:09:27;;;;;;;0.10;0.10;;;15.90;64.20;;;;;;10438116;28;20039;-59
2023/01/17 04:14:27;;;;;;;0.20;0.15;;;15.90;64.20;;;;;;10445206;28;20108;-59
2023/01/17 04:19:30;;;;;;;0.43;0.15;;;16.00;64.10;;;;;;10421607;28;20021;-59
2023/01/17 04:24:31;;;;;;;0.47;0.20;;;15.90;64.30;;;;;;10420551;28;20041;-59
2023/01/17 04:29:31;;;;;;;1.75;0.30;;;15.90;64.30;;;;;;10413818;28;20013;-59
2023/01/17 04:34:32;;;;;;;0.45;0.20;;;15.90;64.20;;;;;;10410610;28;20100;-58
2023/01/17 04:39:33;;;;;;;0.52;0.30;;;15.90;64.30;;;;;;10429117;28;20112;-58
2023/01/17 04:44:33;;;;;;;1.45;0.50;;;15.90;64.40;;;;;;10425742;28;20092;-60
2023/01/17 04:49:34;;;;;;;0.73;0.28;;;15.90;64.50;;;;;;10413360;28;20086;-59
2023/01/17 04:54:35;;;;;;;0.65;0.22;;;15.90;64.40;;;;;;10427674;28;20045;-58
2023/01/17 04:59:35;;;;;;;1.52;0.45;;;16.00;64.50;;;;;;10429721;28;20426;-58
2023/01/17 05:04:36;;;;;;;2.28;2.05;;;16.00;64.70;;;;;;10429376;28;20060;-60
2023/01/17 05:09:37;;;;;;;4.43;3.00;;;16.00;64.60;;;;;;10437578;28;20045;-59
2023/01/17 05:14:38;;;;;;;6.00;4.20;;;16.10;64.60;;;;;;10408093;28;20021;-60
2023/01/17 05:19:38;;;;;;;4.22;3.83;;;16.00;64.80;;;;;;10438426;28;20041;-59
2023/01/17 05:24:43;;;;;;;5.20;4.10;;;16.00;64.90;;;;;;10439868;28;20120;-60
2023/01/17 05:29:44;;;;;;;4.72;4.32;;;16.00;65.00;;;;;;10408632;28;20124;-60
2023/01/17 05:34:45;;;;;;;4.63;4.22;;;15.90;65.00;;;;;;10419070;28;20610;-60
2023/01/17 05:39:45;;;;;;;6.20;4.88;;;15.90;65.20;;;;;;10425041;28;20117;-61
2023/01/17 05:44:46;;;;;;;5.55;5.05;;;15.90;65.20;;;;;;10412172;28;20113;-60
2023/01/17 05:49:47;;;;;;;6.30;5.70;;;15.90;65.20;;;;;;10431254;28;20120;-60
2023/01/17 05:54:49;;;;;;;5.78;5.28;;;15.90;65.20;;;;;;10432758;28;20083;-60
2023/01/17 05:59:50;;;;;;;6.55;5.95;;;15.90;65.10;;;;;;10418234;28;20037;-60
2023/01/17 06:04:50;;;;;;;5.70;5.20;;;15.90;65.10;;;;;;10417901;28;20160;-59
2023/01/17 06:09:51;;;;;;;5.45;4.95;;;15.90;65.00;;;;;;10444641;28;20036;-60
2023/01/17 06:14:51;;;;;;;9.85;6.45;;;15.90;65.10;;;;;;10441876;28;20049;-58
2023/01/17 06:19:52;;;;;;;6.97;6.30;;;15.90;65.60;;;;;;10445940;28;20079;-60
2023/01/17 06:24:53;;;;;;;8.43;6.75;;;16.00;65.80;;;;;;10454378;28;20028;-59
2023/01/17 06:29:54;;;;;;;7.55;5.03;;;16.00;65.80;;;;;;10453974;28;20114;-58
2023/01/17 06:34:54;;;;;;;8.15;5.90;;;16.10;65.90;;;;;;10454215;28;20021;-58
2023/01/17 06:39:55;;;;;;;13.25;5.30;;;16.10;66.20;;;;;;10451802;28;20802;-56
2023/01/17 06:44:55;;;;;;;7.05;5.30;;;16.10;66.10;;;;;;10452162;28;20021;-58
2023/01/17 06:49:56;;;;;;;8.60;5.15;;;16.10;66.20;;;;;;10419786;28;20491;-58
2023/01/17 06:54:57;;;;;;;13.27;5.78;;;16.10;66.20;;;;;;10410065;28;20049;-57
2023/01/17 06:59:57;;;;;;;25.08;6.40;;;16.00;66.70;;;;;;10434048;28;20044;-57
2023/01/17 07:04:58;;;;;;;13.65;4.63;;;16.00;66.70;;;;;;10450036;28;20075;-59
2023/01/17 07:09:59;;;;;;;20.17;5.78;;;16.10;66.60;;;;;;10430835;28;20522;-61
2023/01/17 07:15:00;;;;;;;18.45;5.50;;;16.10;66.30;;;;;;10423440;28;20025;-60
2023/01/17 07:20:01;;;;;;;25.45;5.68;;;16.10;66.40;;;;;;10408955;28;20441;-57
2023/01/17 07:25:02;;;;;;;17.05;4.65;;;16.10;66.40;;;;;;10411149;28;20032;-58
2023/01/17 07:30:03;;;;;;;15.27;4.47;;;15.90;66.50;;;;;;10417751;28;20075;-58
2023/01/17 07:35:05;;;;;;;11.48;4.18;;;16.00;66.30;;;;;;10425081;28;20017;-57
2023/01/17 07:40:07;;;;;;;8.40;3.40;;;15.90;66.00;;;;;;10437751;28;20043;-58
2023/01/17 07:45:08;;;;;;;11.25;3.58;;;15.90;65.90;;;;;;10434580;28;20049;-58
2023/01/17 07:50:10;;;;;;;8.52;3.45;;;15.90;66.40;;;;;;10422262;28;20039;-58
2023/01/17 07:55:11;;;;;;;10.70;4.53;;;15.90;65.80;;;;;;10431433;28;20024;-58
2023/01/17 08:00:12;;;;;;;8.57;4.35;;;16.00;65.60;;;;;;10429085;28;20099;-58
2023/01/17 08:05:12;;;;;;;8.48;2.95;;;16.00;65.30;;;;;;10431950;28;20032;-59
2023/01/17 08:10:16;;;;;;;13.15;3.33;;;16.00;65.90;;;;;;10429255;28;20048;-59
2023/01/17 08:15:17;;;;;;;8.23;2.55;;;16.00;65.50;;;;;;10408711;28;20061;-57
2023/01/17 08:20:19;;;;;;;7.93;2.35;;;16.80;63.70;;;;;;10432665;28;20358;-54
2023/01/17 08:25:22;;;;;;;11.10;2.28;;;16.40;64.30;;;;;;10422813;28;20028;-57
2023/01/17 08:30:24;;;;;;;8.43;1.98;;;16.10;65.10;;;;;;10423621;28;20029;-57
2023/01/17 08:35:26;;;;;;;4.28;1.90;;;15.90;65.30;;;;;;10434840;28;20018;-57
2023/01/17 08:40:28;;;;;;;3.20;1.55;;;15.80;65.50;;;;;;10419335;28;20049;-56
2023/01/17 08:45:28;;;;;;;7.88;1.73;;;15.80;65.60;;;;;;10434489;28;20520;-57
2023/01/17 08:50:29;;;;;;;5.88;1.70;;;15.70;65.90;;;;;;10414409;28;20036;-56
2023/01/17 08:55:30;;;;;;;11.02;1.38;;;15.60;66.10;;;;;;10425760;28;20108;-56
2023/01/17 09:00:31;;;;;;;5.35;1.70;;;15.60;66.20;;;;;;10425552;28;20108;-55
2023/01/17 09:05:32;;;;;;;3.67;1.85;;;15.70;65.70;;;;;;10418506;28;20413;-57
2023/01/17 09:10:32;;;;;;;3.60;1.80;;;15.70;65.50;;;;;;10416111;28;20484;-55
2023/01/17 09:15:33;;;;;;;3.55;1.30;;;15.60;65.60;;;;;;10403675;28;20053;-55
2023/01/17 09:20:34;;;;;;;4.18;1.60;;;15.60;65.70;;;;;;10404285;28;20021;-55
2023/01/17 09:25:34;;;;;;;2.40;1.00;;;15.70;65.50;;;;;;10441036;28;20147;-56
2023/01/17 09:30:35;;;;;;;3.25;1.13;;;15.70;65.30;;;;;;10426025;28;20064;-58
2023/01/17 09:35:36;;;;;;;5.32;1.42;;;15.70;65.40;;;;;;10459074;28;20108;-56
2023/01/17 09:40:43;;;;;;;4.50;2.33;;;15.70;65.20;;;;;;10415139;28;20536;-55
2023/01/17 09:45:43;;;;;;;3.35;1.17;;;15.70;65.30;;;;;;10405296;28;20079;-58
2023/01/17 09:50:57;;;;;;;7.65;1.48;;;15.70;65.20;;;;;;10419883;28;20067;-57
2023/01/17 09:56:01;;;;;;;5.20;1.30;;;15.70;65.10;;;;;;10418391;28;20030;-55
2023/01/17 10:01:39;;;;;;;3.70;1.33;;;15.80;65.10;;;;;;10401671;28;20025;-56
2023/01/17 10:06:54;;;;;;;4.00;1.50;;;15.80;65.10;;;;;;10422259;28;20516;-56
2023/01/17 10:12:20;;;;;;;2.78;1.10;;;15.70;65.20;;;;;;10420260;28;20037;-57
2023/01/17 10:17:45;;;;;;;4.22;1.23;;;15.60;65.30;;;;;;10406015;28;20025;-56
2023/01/17 10:23:21;;;;;;;2.78;1.08;;;15.60;65.40;;;;;;10443573;28;20025;-56
2023/01/17 10:28:40;;;;;;;4.47;1.02;;;15.70;65.40;;;;;;10430049;28;20448;-57
2023/01/17 10:33:55;;;;;;;3.27;1.33;;;15.60;65.20;;;;;;10416043;28;20590;-57
2023/01/17 10:39:03;;;;;;;3.03;1.35;;;15.70;65.30;;;;;;10442805;28;20028;-56
2023/01/17 10:44:37;;;;;;;3.30;1.45;;;15.70;65.20;;;;;;10441561;28;20029;-57
2023/01/17 10:49:45;;;;;;;4.55;1.13;;;15.70;65.10;;;;;;10442425;28;20105;-55
2023/01/17 10:55:18;;;;;;;3.03;1.20;;;15.70;65.10;;;;;;10437247;28;20017;-57
2023/01/17 11:00:43;;;;;;;4.57;1.10;;;15.70;65.10;;;;;;10447628;28;20067;-56
2023/01/17 11:05:44;;;;;;;3.60;1.38;;;15.70;65.00;;;;;;10449860;28;20079;-56
2023/01/17 11:10:56;;;;;;;3.33;1.23;;;15.70;65.00;;;;;;10416212;28;20074;-55
2023/01/17 11:16:20;;;;;;;1.45;0.90;;;15.70;65.00;;;;;;10448616;28;20033;-57
2023/01/17 11:21:24;;;;;;;4.28;0.95;;;15.70;64.90;;;;;;10448453;28;20071;-55
2023/01/17 11:26:31;;;;;;;3.75;1.20;;;15.80;64.80;;;;;;10447516;28;20052;-56
2023/01/17 11:31:32;;;;;;;2.72;1.00;;;15.90;64.60;;;;;;10426705;28;20025;-56
2023/01/17 11:36:33;;;;;;;2.45;1.30;;;16.00;69.70;;;;;;10430125;28;20410;-56
2023/01/17 11:41:38;;;;;;;1.77;1.02;;;16.00;69.90;;;;;;10426775;28;20082;-56
2023/01/17 11:46:38;;;;;;;2.22;1.00;;;16.10;69.00;;;;;;10440238;28;20029;-57
2023/01/17 11:51:41;;;;;;;3.17;1.60;;;16.20;69.20;;;;;;10439955;28;20033;-56
2023/01/17 11:56:45;;;;;;;6.22;1.33;;;16.30;67.50;;;;;;10417006;28;20024;-56
2023/01/17 12:02:46;;;;;;;2.70;1.33;;;16.30;67.60;;;;;;10420413;28;20471;-56
2023/01/17 12:08:13;;;;;;;2.83;1.17;;;16.10;67.70;;;;;;10321104;28;20121;-56
2023/01/17 12:14:17;;;;;;;2.60;1.00;;;16.00;67.80;;;;;;10409570;28;20549;-58
2023/01/17 12:19:54;;;;;;;1.80;0.90;;;15.90;67.70;;;;;;10372606;28;20033;-57
2023/01/17 12:25:22;;;;;;;2.75;1.35;;;16.00;68.50;;;;;;10431249;28;20017;-58
2023/01/17 12:30:49;;;;;;;4.25;2.22;;;16.00;68.20;;;;;;10428550;28;20028;-57
2023/01/17 12:36:03;;;;;;;2.92;1.00;;;16.10;68.10;;;;;;10424255;28;20017;-58
2023/01/17 12:41:31;;;;;;;2.28;1.00;;;15.90;68.00;;;;;;10411781;28;20302;-58
2023/01/17 12:46:42;;;;;;;4.18;1.50;;;15.90;68.30;;;;;;10441998;28;20713;-58
2023/01/17 12:51:46;;;;;;;2.05;1.08;;;15.80;68.40;;;;;;10433361;28;20083;-59
2023/01/17 12:57:17;;;;;;;2.10;0.75;;;15.70;68.70;;;;;;10425786;28;20017;-58
2023/01/17 13:02:37;;;;;;;1.73;0.90;;;15.60;68.70;;;;;;10406564;28;20578;-58
2023/01/17 13:08:16;;;;;;;1.67;0.85;;;15.50;68.90;;;;;;10430000;28;20032;-58
2023/01/17 13:13:24;;;;;;;2.83;1.20;;;15.40;69.10;;;;;;10419239;28;20482;-58
2023/01/17 13:18:28;;;;;;;2.95;1.00;;;15.40;69.20;;;;;;10441300;28;20425;-59
2023/01/17 13:23:57;;;;;;;3.17;1.48;;;15.30;68.50;;;;;;10424749;28;20021;-58
2023/01/17 13:29:43;;;;;;;6.75;1.52;;;15.30;69.30;;;;;;10435332;28;20036;-59
2023/01/17 13:35:10;;;;;;;4.60;1.13;;;15.20;69.40;;;;;;10427867;28;20045;-60
2023/01/17 13:40:38;;;;;;;4.40;1.50;;;15.20;69.00;;;;;;10437606;28;20477;-58
2023/01/17 13:45:39;;;;;;;5.10;1.67;;;15.30;69.20;;;;;;10426697;28;20416;-58
2023/01/17 13:50:40;;;;;;;6.22;1.33;;;15.40;68.90;;;;;;10434859;28;20075;-57
2023/01/17 13:55:49;;;;;;;5.85;1.52;;;15.40;69.50;;;;;;10434050;28;20029;-57
2023/01/17 14:00:50;;;;;;;6.00;1.30;;;15.40;69.50;;;;;;10433241;28;20026;-57
2023/01/17 14:05:56;;;;;;;6.53;1.58;;;15.40;69.40;;;;;;10433886;28;20025;-57
2023/01/17 14:11:06;;;;;;;5.93;1.33;;;15.40;69.40;;;;;;10436630;28;20080;-57
2023/01/17 14:16:26;;;;;;;9.55;1.48;;;15.40;69.40;;;;;;10445612;28;20116;-57
2023/01/17 14:21:31;;;;;;;6.25;1.40;;;15.50;69.30;;;;;;10444491;28;20513;-58
2023/01/17 14:27:13;;;;;;;6.97;1.63;;;15.50;69.70;;;;;;10444174;28;20033;-58
2023/01/17 14:32:24;;;;;;;8.45;1.45;;;15.60;69.70;;;;;;10428574;28;20028;-56
2023/01/17 14:37:48;;;;;;;10.13;3.03;;;15.60;69.10;;;;;;10431056;28;20025;-57
2023/01/17 14:43:04;;;;;;;9.05;1.98;;;15.60;69.50;;;;;;10426529;28;20024;-57
2023/01/17 14:48:14;;;;;;;9.68;2.08;;;15.60;69.70;;;;;;10411316;28;20358;-57
2023/01/17 14:53:30;;;;;;;19.25;2.05;;;15.60;70.30;;;;;;10448188;28;20384;-60
2023/01/17 14:58:33;;;;;;;11.55;2.60;;;15.70;70.20;;;;;;10448594;28;20017;-57
2023/01/17 15:03:54;;;;;;;9.57;1.98;;;15.60;69.40;;;;;;10441440;28;20029;-59
2023/01/17 15:08:56;;;;;;;7.30;1.90;;;15.50;69.70;;;;;;10427928;28;20044;-56
2023/01/17 15:14:04;;;;;;;13.88;3.05;;;15.60;69.40;;;;;;10431593;28;20484;-57
2023/01/17 15:19:13;;;;;;;13.10;3.88;;;15.60;68.70;;;;;;10428769;28;20104;-58
2023/01/17 15:24:25;;;;;;;8.65;1.60;;;15.60;68.50;;;;;;10424264;28;20065;-59
2023/01/17 15:29:32;;;;;;;7.25;1.80;;;15.70;68.30;;;;;;10445066;28;20059;-59
2023/01/17 15:34:42;;;;;;;19.05;2.08;;;15.70;67.90;;;;;;10420318;28;20108;-57
2023/01/17 15:39:42;;;;;;;11.07;1.98;;;15.80;68.00;;;;;;10426177;28;20036;-57
2023/01/17 15:44:43;;;;;;;13.32;2.00;;;15.80;68.10;;;;;;10428449;28;20033;-59
2023/01/17 15:49:50;;;;;;;17.92;4.70;;;15.80;67.80;;;;;;10455853;28;20070;-58
2023/01/17 15:55:13;;;;;;;15.32;2.47;;;15.80;67.70;;;;;;10464463;28;20531;-58
2023/01/17 16:00:18;;;;;;;21.70;3.10;;;15.80;67.60;;;;;;10445375;28;20061;-58
2023/01/17 16:05:29;;;;;;;15.23;2.05;;;15.80;68.00;;;;;;10446569;28;20108;-59
2023/01/17 16:10:34;;;;;;;12.20;2.08;;;15.70;68.10;;;;;;10447781;28;20503;-57
2023/01/17 16:15:36;;;;;;;14.57;3.22;;;15.70;68.20;;;;;;10448011;28;20017;-57
2023/01/17 16:20:48;;;;;;;12.20;2.00;;;15.80;67.90;;;;;;10434249;28;20033;-58
2023/01/17 16:25:49;;;;;;;9.20;2.17;;;15.90;67.40;;;;;;10423959;28;20032;-58
2023/01/17 16:30:52;;;;;;;15.70;3.25;;;15.90;67.20;;;;;;10432451;28;20029;-58
2023/01/17 16:35:53;;;;;;;15.35;2.90;;;16.20;68.20;;;;;;10439018;28;20020;-58
2023/01/17 16:40:54;;;;;;;23.83;3.75;;;16.40;69.10;;;;;;10443695;28;20040;-57
2023/01/17 16:45:55;;;;;;;17.52;3.33;;;16.60;68.30;;;;;;10442703;28;20053;-58
2023/01/17 16:50:55;;;;;;;7.22;2.63;;;16.60;68.00;;;;;;10429754;28;20021;-59
2023/01/17 16:56:06;;;;;;;14.85;2.55;;;16.60;67.90;;;;;;10439287;28;20458;-58
2023/01/17 17:01:10;;;;;;;12.25;2.90;;;16.40;70.50;;;;;;10431830;28;20044;-60
2023/01/17 17:06:11;;;;;;;14.73;3.10;;;16.60;70.60;;;;;;10444746;28;20559;-58
2023/01/17 17:11:22;;;;;;;7.97;2.95;;;16.50;72.00;;;;;;10408604;28;20073;-58
2023/01/17 17:16:31;;;;;;;11.27;2.30;;;16.50;70.50;;;;;;10427282;28;20033;-59
2023/01/17 17:21:34;;;;;;;;;;;16.30;71.00;;;;;;10416257;28;20087;-58
2023/01/17 17:26:35;;;;;;;16.33;2.95;;;16.20;70.80;;;;;;10443503;28;19951;-58
2023/01/17 17:31:38;;;;;;;9.65;2.72;;;16.10;70.40;;;;;;10433529;28;20076;-58
2023/01/17 17:36:39;;;;;;;13.85;2.47;;;16.20;71.10;;;;;;10420252;28;20473;-58
2023/01/17 17:41:44;;;;;;;15.20;2.65;;;15.90;70.30;;;;;;10431116;28;20021;-58
2023/01/17 17:46:48;;;;;;;21.60;4.10;;;15.90;70.80;;;;;;10427378;28;20049;-57
2023/01/17 17:51:48;;;;;;;22.45;4.07;;;15.80;70.00;;;;;;10423528;28;20538;-56
2023/01/17 17:56:49;;;;;;;36.22;6.40;;;15.90;70.60;;;;;;10427830;28;20028;-56
2023/01/17 18:01:50;;;;;;;35.05;6.10;;;15.70;71.60;;;;;;10428308;28;20152;-54
2023/01/17 18:06:56;;;;;;;25.63;4.97;;;15.90;70.80;;;;;;10444776;28;20504;-56
2023/01/17 18:11:56;;;;;;;26.80;4.85;;;15.70;70.20;;;;;;10416393;28;20136;-56
2023/01/17 18:16:57;;;;;;;21.15;3.65;;;15.70;70.70;;;;;;10417989;28;20021;-59
2023/01/17 18:21:58;;;;;;;18.67;3.92;;;15.60;70.20;;;;;;10429917;28;20643;-54
2023/01/17 18:26:58;;;;;;;14.52;3.42;;;15.60;70.40;;;;;;10443016;28;20032;-58
2023/01/17 18:31:59;;;;;;;22.17;3.67;;;15.60;69.50;;;;;;10424168;28;20107;-57
2023/01/17 18:37:00;;;;;;;13.82;4.55;;;15.50;69.80;;;;;;10406114;28;20018;-56
2023/01/17 18:42:00;;;;;;;19.77;4.07;;;15.60;69.70;;;;;;10427282;28;20423;-56
2023/01/17 18:47:03;;;;;;;10.35;2.80;;;15.40;70.30;;;;;;10396104;28;20124;-58
2023/01/17 18:52:06;;;;;;;11.05;3.17;;;15.40;68.90;;;;;;10439386;28;20117;-57
2023/01/17 18:57:09;;;;;;;15.65;3.25;;;15.40;69.00;;;;;;10444293;28;20021;-57
2023/01/17 19:02:10;;;;;;;10.63;3.63;;;15.40;68.90;;;;;;10424956;28;20049;-58
2023/01/17 19:07:12;;;;;;;11.80;2.83;;;15.50;68.80;;;;;;10443285;28;20100;-57
2023/01/17 19:12:12;;;;;;;8.30;3.33;;;15.60;68.50;;;;;;10443689;28;20130;-57
2023/01/17 19:17:13;;;;;;;13.77;2.75;;;15.60;68.00;;;;;;10439005;28;20066;-58
2023/01/17 19:22:13;;;;;;;8.63;2.95;;;15.70;67.80;;;;;;10444827;28;20048;-58
2023/01/17 19:27:14;;;;;;;15.85;2.92;;;15.80;67.60;;;;;;10445717;28;20053;-59
2023/01/17 19:32:15;;;;;;;12.18;2.40;;;15.80;67.40;;;;;;10416835;28;20039;-58
2023/01/17 19:37:15;;;;;;;10.35;2.30;;;15.80;67.30;;;;;;10431924;28;20203;-57
2023/01/17 19:42:16;;;;;;;7.28;3.03;;;15.80;67.20;;;;;;10432459;28;20021;-58
2023/01/17 19:47:17;;;;;;;7.05;2.42;;;15.80;67.20;;;;;;10430209;28;20056;-58
2023/01/17 19:52:18;;;;;;;7.05;2.78;;;15.80;67.20;;;;;;10432486;28;20021;-55
2023/01/17 19:57:20;;;;;;;9.40;3.42;;;15.80;67.10;;;;;;10433787;28;20021;-57
2023/01/17 20:02:21;;;;;;;7.30;2.42;;;15.80;67.20;;;;;;10413070;28;20029;-59
2023/01/17 20:07:22;;;;;;;7.22;3.13;;;15.80;67.30;;;;;;10417378;28;20675;-58
2023/01/17 20:12:23;;;;;;;6.57;1.92;;;15.80;67.10;;;;;;10421221;28;20523;-57
2023/01/17 20:17:23;;;;;;;8.50;2.67;;;15.80;67.10;;;;;;10420472;28;20030;-57
2023/01/17 20:22:24;;;;;;;7.43;2.65;;;15.80;67.00;;;;;;10421492;28;20082;-57
2023/01/17 20:27:25;;;;;;;5.07;3.00;;;15.80;66.90;;;;;;10427248;28;20449;-59
2023/01/17 20:32:26;;;;;;;4.45;1.55;;;15.80;66.90;;;;;;10413772;28;20159;-57
2023/01/17 20:37:26;;;;;;;7.97;2.53;;;15.80;66.90;;;;;;10428385;28;20013;-57
2023/01/17 20:42:28;;;;;;;8.38;2.50;;;15.80;66.90;;;;;;10443577;28;20102;-58
2023/01/17 20:47:29;;;;;;;7.90;1.92;;;15.70;67.00;;;;;;10438322;28;20360;-58
2023/01/17 20:52:29;;;;;;;6.40;1.95;;;15.70;67.10;;;;;;10411953;28;20041;-58
2023/01/17 20:57:31;;;;;;;9.52;3.10;;;15.70;67.00;;;;;;10430835;28;20045;-57
2023/01/17 21:02:32;;;;;;;7.57;2.30;;;15.60;67.00;;;;;;10435131;28;20024;-56
2023/01/17 21:07:32;;;;;;;3.85;1.73;;;15.70;67.00;;;;;;10463274;28;20021;-58
2023/01/17 21:12:33;;;;;;;4.35;1.95;;;15.70;67.40;;;;;;10443580;28;20068;-58
2023/01/17 21:17:39;;;;;;;4.43;2.08;;;15.70;66.70;;;;;;10446560;28;20056;-58
2023/01/17 21:22:40;;;;;;;6.20;3.08;;;15.60;66.50;;;;;;10447313;28;20086;-57
2023/01/17 21:27:40;;;;;;;5.70;2.40;;;15.70;66.30;;;;;;10426440;28;20083;-57
2023/01/17 21:32:41;;;;;;;6.40;2.10;;;15.70;66.20;;;;;;10420121;28;20083;-57
2023/01/17 21:37:42;;;;;;;5.45;2.33;;;15.70;66.00;;;;;;10406908;28;20061;-56
2023/01/17 21:42:43;;;;;;;5.65;2.90;;;15.70;65.80;;;;;;10413860;28;20056;-57
2023/01/17 21:47:44;;;;;;;5.22;2.10;;;15.70;65.60;;;;;;10404131;28;20039;-58
2023/01/17 21:52:44;;;;;;;5.72;2.30;;;15.90;65.20;;;;;;10438500;28;20029;-57
2023/01/17 22:03:04;;;;;;;5.77;2.10;;;16.00;64.70;;;;;;10435000;28;20037;-56
2023/01/17 22:08:11;;;;;;;4.07;2.20;;;16.00;64.50;;;;;;10426382;28;20087;-57
2023/01/17 22:13:19;;;;;;;7.47;4.18;;;16.00;64.50;;;;;;10415156;28;20069;-57
2023/01/17 22:18:19;;;;;;;4.57;2.40;;;16.00;64.20;;;;;;10428419;28;20029;-57
2023/01/17 22:23:20;;;;;;;4.70;2.20;;;16.00;64.20;;;;;;10417862;28;20083;-57
2023/01/17 22:28:21;;;;;;;4.38;2.47;;;16.00;64.20;;;;;;10449153;28;20029;-57
2023/01/17 22:33:21;;;;;;;4.20;2.30;;;16.00;64.20;;;;;;10446307;28;20128;-57
2023/01/17 22:38:22;;;;;;;4.25;2.47;;;16.00;64.20;;;;;;10404611;28;20476;-57
2023/01/17 22:43:23;;;;;;;3.72;1.67;;;16.00;64.20;;;;;;10442626;28;20116;-57
2023/01/17 22:48:23;;;;;;;5.22;2.08;;;16.00;64.10;;;;;;10426948;28;20073;-57
2023/01/17 22:53:24;;;;;;;4.22;2.13;;;16.00;64.10;;;;;;10413374;28;20076;-57
2023/01/17 22:58:27;;;;;;;5.07;2.42;;;16.00;64.10;;;;;;10437069;28;20025;-58
2023/01/17 23:03:28;;;;;;;3.75;2.22;;;16.00;64.20;;;;;;10443970;28;20051;-57
2023/01/17 23:08:28;;;;;;;4.25;2.10;;;16.10;64.00;;;;;;10437756;28;20021;-57
2023/01/17 23:13:30;;;;;;;7.20;2.30;;;16.00;63.90;;;;;;10450883;28;20131;-58
2023/01/17 23:23:50;;;;;;;3.22;1.90;;;16.10;63.90;;;;;;10411181;28;20068;-57
2023/01/17 23:28:50;;;;;;;4.63;2.38;;;16.10;63.90;;;;;;10427699;28;20108;-57
2023/01/17 23:33:51;;;;;;;3.25;1.70;;;16.10;63.90;;;;;;10437661;28;20030;-56
2023/01/17 23:38:52;;;;;;;4.38;2.20;;;16.00;63.80;;;;;;10422257;28;20045;-56
2023/01/17 23:43:54;;;;;;;4.50;2.50;;;16.00;63.90;;;;;;10412823;28;20071;-57
2023/01/17 23:48:55;;;;;;;3.50;2.10;;;16.00;63.80;;;;;;10441142;28;20017;-57
2023/01/17 23:54:04;;;;;;;4.30;2.55;;;16.00;63.80;;;;;;10448262;28;20396;-57
2023/01/17 23:59:04;;;;;;;2.95;1.63;;;16.00;63.70;;;;;;10440103;28;20013;-58
